sensor_id;sensor_type;location;lat;lon;timestamp;P1;durP1;ratioP1;P2;durP2;ratioP2
30185;SDS011;31152;49.190;8.122;2022-12-29T00:00:26;5.97;;;2.47;;
30185;SDS011;31152;49.190;8.122;2022-12-29T00:02:55;5.10;;;2.38;;
30185;SDS011;31152;49.190;8.122;2022-12-29T00:05:23;4.70;;;2.28;;
30185;SDS011;31152;49.190;8.122;2022-12-29T00:07:50;5.75;;;2.45;;
30185;SDS011;31152;49.190;8.122;2022-12-29T00:10:17;9.05;;;2.65;;
30185;SDS011;31152;49.190;8.122;2022-12-29T00:12:44;6.43;;;2.20;;
30185;SDS011;31152;49.190;8.122;2022-12-29T00:15:29;4.85;;;2.28;;
30185;SDS011;31152;49.190;8.122;2022-12-29T00:18:06;4.25;;;2.08;;
30185;SDS011;31152;49.190;8.122;2022-12-29T00:20:34;4.90;;;1.65;;
30185;SDS011;31152;49.190;8.122;2022-12-29T00:23:20;3.47;;;1.45;;
30185;SDS011;31152;49.190;8.122;2022-12-29T00:26:15;2.28;;;1.13;;
30185;SDS011;31152;49.190;8.122;2022-12-29T00:29:01;4.22;;;1.30;;
30185;SDS011;31152;49.190;8.122;2022-12-29T00:31:49;3.03;;;1.27;;
30185;SDS011;31152;49.190;8.122;2022-12-29T00:34:35;4.78;;;1.20;;
30185;SDS011;31152;49.190;8.122;2022-12-29T00:37:38;9.23;;;1.20;;
30185;SDS011;31152;49.190;8.122;2022-12-29T00:40:30;2.45;;;1.05;;
30185;SDS011;31152;49.190;8.122;2022-12-29T00:43:15;5.93;;;1.20;;
30185;SDS011;31152;49.190;8.122;2022-12-29T00:46:01;1.55;;;1.00;;
30185;SDS011;31152;49.190;8.122;2022-12-29T00:48:28;3.20;;;0.73;;
30185;SDS011;31152;49.190;8.122;2022-12-29T00:51:13;5.03;;;0.98;;
30185;SDS011;31152;49.190;8.122;2022-12-29T00:53:40;3.38;;;0.98;;
30185;SDS011;31152;49.190;8.122;2022-12-29T00:56:06;1.60;;;0.80;;
30185;SDS011;31152;49.190;8.122;2022-12-29T00:58:33;3.00;;;1.42;;
30185;SDS011;31152;49.190;8.122;2022-12-29T01:01:01;4.60;;;0.80;;
30185;SDS011;31152;49.190;8.122;2022-12-29T01:03:30;3.92;;;1.25;;
30185;SDS011;31152;49.190;8.122;2022-12-29T01:06:02;2.95;;;1.20;;
30185;SDS011;31152;49.190;8.122;2022-12-29T01:08:30;2.35;;;0.93;;
30185;SDS011;31152;49.190;8.122;2022-12-29T01:10:58;4.82;;;1.10;;
30185;SDS011;31152;49.190;8.122;2022-12-29T01:13:28;2.00;;;0.90;;
30185;SDS011;31152;49.190;8.122;2022-12-29T01:15:55;3.72;;;1.08;;
30185;SDS011;31152;49.190;8.122;2022-12-29T01:18:25;2.75;;;1.00;;
30185;SDS011;31152;49.190;8.122;2022-12-29T01:20:59;1.83;;;1.00;;
30185;SDS011;31152;49.190;8.122;2022-12-29T01:23:27;4.57;;;0.98;;
30185;SDS011;31152;49.190;8.122;2022-12-29T01:25:54;2.95;;;0.90;;
30185;SDS011;31152;49.190;8.122;2022-12-29T01:28:22;4.15;;;0.95;;
30185;SDS011;31152;49.190;8.122;2022-12-29T01:30:54;7.15;;;0.90;;
30185;SDS011;31152;49.190;8.122;2022-12-29T01:33:20;2.38;;;0.93;;
30185;SDS011;31152;49.190;8.122;2022-12-29T01:35:47;3.60;;;0.82;;
30185;SDS011;31152;49.190;8.122;2022-12-29T01:38:16;4.70;;;1.15;;
30185;SDS011;31152;49.190;8.122;2022-12-29T01:40:44;3.50;;;0.82;;
30185;SDS011;31152;49.190;8.122;2022-12-29T01:43:12;4.32;;;1.15;;
30185;SDS011;31152;49.190;8.122;2022-12-29T01:45:45;3.58;;;1.23;;
30185;SDS011;31152;49.190;8.122;2022-12-29T01:48:16;3.40;;;1.00;;
30185;SDS011;31152;49.190;8.122;2022-12-29T01:50:49;2.15;;;0.80;;
30185;SDS011;31152;49.190;8.122;2022-12-29T01:53:18;3.03;;;1.10;;
30185;SDS011;31152;49.190;8.122;2022-12-29T01:56:01;5.10;;;1.23;;
30185;SDS011;31152;49.190;8.122;2022-12-29T01:58:32;4.57;;;1.30;;
30185;SDS011;31152;49.190;8.122;2022-12-29T02:01:04;3.50;;;1.20;;
30185;SDS011;31152;49.190;8.122;2022-12-29T02:03:32;1.98;;;1.00;;
30185;SDS011;31152;49.190;8.122;2022-12-29T02:06:08;3.25;;;1.10;;
30185;SDS011;31152;49.190;8.122;2022-12-29T02:08:43;2.92;;;1.10;;
30185;SDS011;31152;49.190;8.122;2022-12-29T02:11:13;3.63;;;1.10;;
30185;SDS011;31152;49.190;8.122;2022-12-29T02:13:42;3.80;;;1.20;;
30185;SDS011;31152;49.190;8.122;2022-12-29T02:21:48;2.22;;;1.20;;
30185;SDS011;31152;49.190;8.122;2022-12-29T02:30:13;3.45;;;1.00;;
30185;SDS011;31152;49.190;8.122;2022-12-29T02:36:01;2.08;;;0.95;;
30185;SDS011;31152;49.190;8.122;2022-12-29T02:41:32;5.45;;;1.05;;
30185;SDS011;31152;49.190;8.122;2022-12-29T02:44:02;3.55;;;0.90;;
30185;SDS011;31152;49.190;8.122;2022-12-29T02:49:27;2.58;;;1.25;;
30185;SDS011;31152;49.190;8.122;2022-12-29T02:54:42;2.72;;;1.67;;
30185;SDS011;31152;49.190;8.122;2022-12-29T02:59:52;1.20;;;0.85;;
30185;SDS011;31152;49.190;8.122;2022-12-29T03:02:39;4.45;;;1.23;;
30185;SDS011;31152;49.190;8.122;2022-12-29T03:05:19;5.40;;;1.10;;
30185;SDS011;31152;49.190;8.122;2022-12-29T03:10:35;3.88;;;1.20;;
30185;SDS011;31152;49.190;8.122;2022-12-29T03:19:08;3.35;;;0.98;;
30185;SDS011;31152;49.190;8.122;2022-12-29T03:24:44;2.83;;;0.98;;
30185;SDS011;31152;49.190;8.122;2022-12-29T03:27:16;1.83;;;0.90;;
30185;SDS011;31152;49.190;8.122;2022-12-29T03:29:57;3.08;;;1.05;;
30185;SDS011;31152;49.190;8.122;2022-12-29T03:32:31;1.95;;;1.27;;
30185;SDS011;31152;49.190;8.122;2022-12-29T03:35:02;5.40;;;1.00;;
30185;SDS011;31152;49.190;8.122;2022-12-29T03:37:31;3.10;;;1.50;;
30185;SDS011;31152;49.190;8.122;2022-12-29T03:40:03;5.20;;;1.20;;
30185;SDS011;31152;49.190;8.122;2022-12-29T03:42:32;2.70;;;1.02;;
30185;SDS011;31152;49.190;8.122;2022-12-29T03:45:03;2.15;;;0.85;;
30185;SDS011;31152;49.190;8.122;2022-12-29T03:47:33;1.75;;;0.80;;
30185;SDS011;31152;49.190;8.122;2022-12-29T03:50:00;3.33;;;1.25;;
30185;SDS011;31152;49.190;8.122;2022-12-29T03:52:29;1.42;;;0.82;;
30185;SDS011;31152;49.190;8.122;2022-12-29T03:54:58;1.70;;;0.75;;
30185;SDS011;31152;49.190;8.122;2022-12-29T03:57:25;1.92;;;0.80;;
30185;SDS011;31152;49.190;8.122;2022-12-29T03:59:52;4.05;;;0.70;;
30185;SDS011;31152;49.190;8.122;2022-12-29T04:02:21;3.83;;;0.65;;
30185;SDS011;31152;49.190;8.122;2022-12-29T04:04:48;5.43;;;1.15;;
30185;SDS011;31152;49.190;8.122;2022-12-29T04:07:15;2.92;;;1.00;;
30185;SDS011;31152;49.190;8.122;2022-12-29T04:09:43;1.38;;;0.80;;
30185;SDS011;31152;49.190;8.122;2022-12-29T04:12:09;2.65;;;0.90;;
30185;SDS011;31152;49.190;8.122;2022-12-29T04:14:36;6.18;;;0.82;;
30185;SDS011;31152;49.190;8.122;2022-12-29T04:17:03;4.53;;;1.00;;
30185;SDS011;31152;49.190;8.122;2022-12-29T04:19:29;2.10;;;0.90;;
30185;SDS011;31152;49.190;8.122;2022-12-29T04:21:56;3.10;;;0.88;;
30185;SDS011;31152;49.190;8.122;2022-12-29T04:24:23;2.70;;;0.80;;
30185;SDS011;31152;49.190;8.122;2022-12-29T04:26:52;3.08;;;0.90;;
30185;SDS011;31152;49.190;8.122;2022-12-29T04:29:19;3.03;;;0.95;;
30185;SDS011;31152;49.190;8.122;2022-12-29T04:31:46;1.98;;;0.77;;
30185;SDS011;31152;49.190;8.122;2022-12-29T04:34:13;2.10;;;0.68;;
30185;SDS011;31152;49.190;8.122;2022-12-29T04:36:43;4.18;;;1.05;;
30185;SDS011;31152;49.190;8.122;2022-12-29T04:39:17;4.43;;;0.73;;
30185;SDS011;31152;49.190;8.122;2022-12-29T04:41:44;7.45;;;1.30;;
30185;SDS011;31152;49.190;8.122;2022-12-29T04:44:13;2.58;;;1.00;;
30185;SDS011;31152;49.190;8.122;2022-12-29T04:46:40;1.77;;;0.70;;
30185;SDS011;31152;49.190;8.122;2022-12-29T04:49:07;3.78;;;1.00;;
30185;SDS011;31152;49.190;8.122;2022-12-29T04:51:34;3.10;;;1.13;;
30185;SDS011;31152;49.190;8.122;2022-12-29T04:54:04;1.42;;;0.80;;
30185;SDS011;31152;49.190;8.122;2022-12-29T04:56:30;3.90;;;0.95;;
30185;SDS011;31152;49.190;8.122;2022-12-29T04:58:57;3.35;;;1.08;;
30185;SDS011;31152;49.190;8.122;2022-12-29T05:01:26;2.40;;;0.88;;
30185;SDS011;31152;49.190;8.122;2022-12-29T05:03:53;2.75;;;0.90;;
30185;SDS011;31152;49.190;8.122;2022-12-29T05:06:20;6.93;;;1.35;;
30185;SDS011;31152;49.190;8.122;2022-12-29T05:08:46;2.47;;;1.15;;
30185;SDS011;31152;49.190;8.122;2022-12-29T05:11:13;1.88;;;0.90;;
30185;SDS011;31152;49.190;8.122;2022-12-29T05:13:40;2.08;;;0.95;;
30185;SDS011;31152;49.190;8.122;2022-12-29T05:16:12;4.60;;;1.10;;
30185;SDS011;31152;49.190;8.122;2022-12-29T05:18:39;3.30;;;0.93;;
30185;SDS011;31152;49.190;8.122;2022-12-29T05:21:06;2.20;;;0.95;;
30185;SDS011;31152;49.190;8.122;2022-12-29T05:23:35;4.32;;;1.35;;
30185;SDS011;31152;49.190;8.122;2022-12-29T05:26:02;5.72;;;1.13;;
30185;SDS011;31152;49.190;8.122;2022-12-29T05:28:29;2.72;;;1.02;;
30185;SDS011;31152;49.190;8.122;2022-12-29T05:30:55;2.97;;;1.00;;
30185;SDS011;31152;49.190;8.122;2022-12-29T05:33:22;2.15;;;0.98;;
30185;SDS011;31152;49.190;8.122;2022-12-29T05:35:49;4.18;;;1.10;;
30185;SDS011;31152;49.190;8.122;2022-12-29T05:38:18;2.55;;;1.13;;
30185;SDS011;31152;49.190;8.122;2022-12-29T05:40:47;1.73;;;0.93;;
30185;SDS011;31152;49.190;8.122;2022-12-29T05:43:14;3.55;;;0.93;;
30185;SDS011;31152;49.190;8.122;2022-12-29T05:45:40;3.03;;;0.98;;
30185;SDS011;31152;49.190;8.122;2022-12-29T05:48:07;4.88;;;1.25;;
30185;SDS011;31152;49.190;8.122;2022-12-29T05:50:34;2.38;;;1.02;;
30185;SDS011;31152;49.190;8.122;2022-12-29T05:53:01;1.55;;;0.95;;
30185;SDS011;31152;49.190;8.122;2022-12-29T05:55:30;5.57;;;1.67;;
30185;SDS011;31152;49.190;8.122;2022-12-29T05:57:56;5.03;;;1.05;;
30185;SDS011;31152;49.190;8.122;2022-12-29T06:00:26;3.35;;;1.08;;
30185;SDS011;31152;49.190;8.122;2022-12-29T06:02:52;2.78;;;1.00;;
30185;SDS011;31152;49.190;8.122;2022-12-29T06:05:19;2.92;;;1.00;;
30185;SDS011;31152;49.190;8.122;2022-12-29T06:07:46;2.92;;;1.33;;
30185;SDS011;31152;49.190;8.122;2022-12-29T06:10:13;5.35;;;1.38;;
30185;SDS011;31152;49.190;8.122;2022-12-29T06:12:40;3.15;;;1.10;;
30185;SDS011;31152;49.190;8.122;2022-12-29T06:15:09;4.43;;;1.40;;
30185;SDS011;31152;49.190;8.122;2022-12-29T06:17:36;3.97;;;1.20;;
30185;SDS011;31152;49.190;8.122;2022-12-29T06:20:05;2.10;;;1.17;;
30185;SDS011;31152;49.190;8.122;2022-12-29T06:22:35;4.50;;;1.38;;
30185;SDS011;31152;49.190;8.122;2022-12-29T06:25:05;2.70;;;1.15;;
30185;SDS011;31152;49.190;8.122;2022-12-29T06:27:32;4.15;;;1.30;;
30185;SDS011;31152;49.190;8.122;2022-12-29T06:29:59;3.40;;;0.98;;
30185;SDS011;31152;49.190;8.122;2022-12-29T06:32:26;4.07;;;1.30;;
30185;SDS011;31152;49.190;8.122;2022-12-29T06:34:52;2.00;;;1.30;;
30185;SDS011;31152;49.190;8.122;2022-12-29T06:37:22;3.20;;;1.10;;
30185;SDS011;31152;49.190;8.122;2022-12-29T06:39:48;3.60;;;1.40;;
30185;SDS011;31152;49.190;8.122;2022-12-29T06:42:15;3.33;;;1.10;;
30185;SDS011;31152;49.190;8.122;2022-12-29T06:44:42;3.33;;;1.40;;
30185;SDS011;31152;49.190;8.122;2022-12-29T06:47:09;6.60;;;1.75;;
30185;SDS011;31152;49.190;8.122;2022-12-29T06:49:36;3.95;;;1.50;;
30185;SDS011;31152;49.190;8.122;2022-12-29T06:52:03;3.78;;;1.48;;
30185;SDS011;31152;49.190;8.122;2022-12-29T06:54:38;4.60;;;1.70;;
30185;SDS011;31152;49.190;8.122;2022-12-29T06:57:05;5.28;;;1.90;;
30185;SDS011;31152;49.190;8.122;2022-12-29T06:59:32;4.90;;;1.55;;
30185;SDS011;31152;49.190;8.122;2022-12-29T07:02:01;6.20;;;1.95;;
30185;SDS011;31152;49.190;8.122;2022-12-29T07:04:30;5.65;;;1.67;;
30185;SDS011;31152;49.190;8.122;2022-12-29T07:07:02;2.78;;;1.50;;
30185;SDS011;31152;49.190;8.122;2022-12-29T07:09:30;4.72;;;1.30;;
30185;SDS011;31152;49.190;8.122;2022-12-29T07:11:58;8.38;;;1.65;;
30185;SDS011;31152;49.190;8.122;2022-12-29T07:14:25;3.20;;;1.60;;
30185;SDS011;31152;49.190;8.122;2022-12-29T07:16:52;4.18;;;1.60;;
30185;SDS011;31152;49.190;8.122;2022-12-29T07:19:19;4.45;;;1.77;;
30185;SDS011;31152;49.190;8.122;2022-12-29T07:21:46;4.43;;;1.42;;
30185;SDS011;31152;49.190;8.122;2022-12-29T07:24:13;3.15;;;1.60;;
30185;SDS011;31152;49.190;8.122;2022-12-29T07:26:40;7.97;;;1.40;;
30185;SDS011;31152;49.190;8.122;2022-12-29T07:29:07;4.50;;;1.60;;
30185;SDS011;31152;49.190;8.122;2022-12-29T07:31:34;7.00;;;1.67;;
30185;SDS011;31152;49.190;8.122;2022-12-29T07:34:01;8.32;;;1.73;;
30185;SDS011;31152;49.190;8.122;2022-12-29T07:36:28;3.60;;;1.13;;
30185;SDS011;31152;49.190;8.122;2022-12-29T07:39:00;7.20;;;1.60;;
30185;SDS011;31152;49.190;8.122;2022-12-29T07:41:27;3.40;;;1.27;;
30185;SDS011;31152;49.190;8.122;2022-12-29T07:43:56;6.55;;;1.63;;
30185;SDS011;31152;49.190;8.122;2022-12-29T07:46:24;4.00;;;1.50;;
30185;SDS011;31152;49.190;8.122;2022-12-29T07:49:13;5.28;;;1.65;;
30185;SDS011;31152;49.190;8.122;2022-12-29T07:51:40;3.17;;;1.27;;
30185;SDS011;31152;49.190;8.122;2022-12-29T07:54:08;5.53;;;1.35;;
30185;SDS011;31152;49.190;8.122;2022-12-29T07:56:35;3.90;;;1.40;;
30185;SDS011;31152;49.190;8.122;2022-12-29T07:59:02;6.68;;;1.50;;
30185;SDS011;31152;49.190;8.122;2022-12-29T08:01:31;5.75;;;1.52;;
30185;SDS011;31152;49.190;8.122;2022-12-29T08:03:58;3.15;;;1.45;;
30185;SDS011;31152;49.190;8.122;2022-12-29T08:06:24;6.68;;;1.48;;
30185;SDS011;31152;49.190;8.122;2022-12-29T08:08:51;8.52;;;1.67;;
30185;SDS011;31152;49.190;8.122;2022-12-29T08:11:22;3.90;;;1.80;;
30185;SDS011;31152;49.190;8.122;2022-12-29T08:13:49;3.05;;;1.60;;
30185;SDS011;31152;49.190;8.122;2022-12-29T08:16:16;3.63;;;1.80;;
30185;SDS011;31152;49.190;8.122;2022-12-29T08:18:44;6.13;;;1.92;;
30185;SDS011;31152;49.190;8.122;2022-12-29T08:21:11;5.40;;;2.08;;
30185;SDS011;31152;49.190;8.122;2022-12-29T08:23:38;5.65;;;1.85;;
30185;SDS011;31152;49.190;8.122;2022-12-29T08:26:05;5.85;;;2.00;;
30185;SDS011;31152;49.190;8.122;2022-12-29T08:28:32;5.18;;;1.50;;
30185;SDS011;31152;49.190;8.122;2022-12-29T08:31:01;5.97;;;1.85;;
30185;SDS011;31152;49.190;8.122;2022-12-29T08:33:29;3.55;;;1.50;;
30185;SDS011;31152;49.190;8.122;2022-12-29T08:36:02;3.92;;;1.50;;
30185;SDS011;31152;49.190;8.122;2022-12-29T08:38:33;5.97;;;2.13;;
30185;SDS011;31152;49.190;8.122;2022-12-29T08:41:00;3.42;;;1.65;;
30185;SDS011;31152;49.190;8.122;2022-12-29T08:43:32;3.78;;;1.55;;
30185;SDS011;31152;49.190;8.122;2022-12-29T08:45:59;3.85;;;1.48;;
30185;SDS011;31152;49.190;8.122;2022-12-29T08:48:26;8.15;;;1.63;;
30185;SDS011;31152;49.190;8.122;2022-12-29T08:50:55;6.97;;;2.17;;
30185;SDS011;31152;49.190;8.122;2022-12-29T08:53:22;4.03;;;1.73;;
30185;SDS011;31152;49.190;8.122;2022-12-29T08:55:54;3.92;;;1.40;;
30185;SDS011;31152;49.190;8.122;2022-12-29T08:58:30;3.05;;;1.30;;
30185;SDS011;31152;49.190;8.122;2022-12-29T09:00:57;3.88;;;1.60;;
30185;SDS011;31152;49.190;8.122;2022-12-29T09:03:29;3.97;;;1.73;;
30185;SDS011;31152;49.190;8.122;2022-12-29T09:06:16;4.95;;;1.70;;
30185;SDS011;31152;49.190;8.122;2022-12-29T09:08:44;4.20;;;1.85;;
30185;SDS011;31152;49.190;8.122;2022-12-29T09:11:13;4.63;;;1.70;;
30185;SDS011;31152;49.190;8.122;2022-12-29T09:13:40;6.38;;;2.20;;
30185;SDS011;31152;49.190;8.122;2022-12-29T09:16:07;4.13;;;1.70;;
30185;SDS011;31152;49.190;8.122;2022-12-29T09:18:34;4.43;;;1.67;;
30185;SDS011;31152;49.190;8.122;2022-12-29T09:21:02;3.13;;;1.50;;
30185;SDS011;31152;49.190;8.122;2022-12-29T09:23:31;10.38;;;1.85;;
30185;SDS011;31152;49.190;8.122;2022-12-29T09:25:59;3.35;;;1.40;;
30185;SDS011;31152;49.190;8.122;2022-12-29T09:28:26;5.32;;;1.83;;
30185;SDS011;31152;49.190;8.122;2022-12-29T09:30:55;6.13;;;1.75;;
30185;SDS011;31152;49.190;8.122;2022-12-29T09:33:23;3.90;;;1.55;;
30185;SDS011;31152;49.190;8.122;2022-12-29T09:35:52;4.10;;;1.30;;
30185;SDS011;31152;49.190;8.122;2022-12-29T09:38:20;2.80;;;1.48;;
30185;SDS011;31152;49.190;8.122;2022-12-29T09:40:54;3.70;;;1.58;;
30185;SDS011;31152;49.190;8.122;2022-12-29T09:46:29;3.25;;;1.80;;
30185;SDS011;31152;49.190;8.122;2022-12-29T09:51:41;3.00;;;1.70;;
30185;SDS011;31152;49.190;8.122;2022-12-29T09:54:20;5.13;;;1.45;;
30185;SDS011;31152;49.190;8.122;2022-12-29T09:56:58;6.63;;;1.85;;
30185;SDS011;31152;49.190;8.122;2022-12-29T09:59:27;3.30;;;1.20;;
30185;SDS011;31152;49.190;8.122;2022-12-29T10:02:32;2.25;;;1.48;;
30185;SDS011;31152;49.190;8.122;2022-12-29T10:05:12;2.28;;;1.40;;
30185;SDS011;31152;49.190;8.122;2022-12-29T10:10:27;5.10;;;1.95;;
30185;SDS011;31152;49.190;8.122;2022-12-29T10:23:35;3.85;;;1.35;;
30185;SDS011;31152;49.190;8.122;2022-12-29T10:26:12;2.85;;;1.33;;
30185;SDS011;31152;49.190;8.122;2022-12-29T10:31:54;2.88;;;1.50;;
30185;SDS011;31152;49.190;8.122;2022-12-29T10:34:27;5.78;;;1.40;;
30185;SDS011;31152;49.190;8.122;2022-12-29T10:37:09;1.95;;;1.20;;
30185;SDS011;31152;49.190;8.122;2022-12-29T10:39:59;2.75;;;1.30;;
30185;SDS011;31152;49.190;8.122;2022-12-29T10:42:43;2.47;;;1.20;;
30185;SDS011;31152;49.190;8.122;2022-12-29T10:45:13;5.18;;;1.63;;
30185;SDS011;31152;49.190;8.122;2022-12-29T10:47:52;2.83;;;1.25;;
30185;SDS011;31152;49.190;8.122;2022-12-29T10:50:30;6.68;;;1.40;;
30185;SDS011;31152;49.190;8.122;2022-12-29T10:52:58;4.30;;;1.30;;
30185;SDS011;31152;49.190;8.122;2022-12-29T10:55:35;3.63;;;1.20;;
30185;SDS011;31152;49.190;8.122;2022-12-29T10:58:04;8.70;;;1.60;;
30185;SDS011;31152;49.190;8.122;2022-12-29T11:00:33;3.80;;;1.85;;
30185;SDS011;31152;49.190;8.122;2022-12-29T11:06:22;4.85;;;1.30;;
30185;SDS011;31152;49.190;8.122;2022-12-29T11:08:45;1.83;;;1.08;;
30185;SDS011;31152;49.190;8.122;2022-12-29T11:11:24;4.78;;;1.65;;
30185;SDS011;31152;49.190;8.122;2022-12-29T11:13:58;6.18;;;2.10;;
30185;SDS011;31152;49.190;8.122;2022-12-29T11:16:32;4.65;;;1.88;;
30185;SDS011;31152;49.190;8.122;2022-12-29T11:19:01;2.10;;;1.13;;
30185;SDS011;31152;49.190;8.122;2022-12-29T11:21:33;5.30;;;1.60;;
30185;SDS011;31152;49.190;8.122;2022-12-29T11:24:18;6.03;;;1.50;;
30185;SDS011;31152;49.190;8.122;2022-12-29T11:26:45;7.05;;;1.63;;
30185;SDS011;31152;49.190;8.122;2022-12-29T11:31:51;5.10;;;1.95;;
30185;SDS011;31152;49.190;8.122;2022-12-29T11:34:22;7.85;;;1.88;;
30185;SDS011;31152;49.190;8.122;2022-12-29T11:37:03;7.00;;;1.75;;
30185;SDS011;31152;49.190;8.122;2022-12-29T11:42:20;7.50;;;1.33;;
30185;SDS011;31152;49.190;8.122;2022-12-29T11:44:54;3.58;;;1.45;;
30185;SDS011;31152;49.190;8.122;2022-12-29T11:47:28;4.13;;;1.52;;
30185;SDS011;31152;49.190;8.122;2022-12-29T11:49:58;4.05;;;1.73;;
30185;SDS011;31152;49.190;8.122;2022-12-29T11:52:29;3.30;;;1.38;;
30185;SDS011;31152;49.190;8.122;2022-12-29T11:55:01;3.75;;;1.60;;
30185;SDS011;31152;49.190;8.122;2022-12-29T11:57:32;2.55;;;1.35;;
30185;SDS011;31152;49.190;8.122;2022-12-29T12:00:13;5.68;;;1.23;;
30185;SDS011;31152;49.190;8.122;2022-12-29T12:02:58;3.47;;;1.40;;
30185;SDS011;31152;49.190;8.122;2022-12-29T12:10:48;3.35;;;1.23;;
30185;SDS011;31152;49.190;8.122;2022-12-29T12:16:09;3.22;;;1.08;;
30185;SDS011;31152;49.190;8.122;2022-12-29T12:18:50;1.98;;;1.13;;
30185;SDS011;31152;49.190;8.122;2022-12-29T12:21:31;3.33;;;1.20;;
30185;SDS011;31152;49.190;8.122;2022-12-29T12:29:54;3.65;;;1.13;;
30185;SDS011;31152;49.190;8.122;2022-12-29T12:33:00;6.50;;;1.20;;
30185;SDS011;31152;49.190;8.122;2022-12-29T12:41:37;0.77;;;0.63;;
30185;SDS011;31152;49.190;8.122;2022-12-29T12:59:06;5.18;;;1.42;;
30185;SDS011;31152;49.190;8.122;2022-12-29T13:02:19;1.65;;;0.90;;
30185;SDS011;31152;49.190;8.122;2022-12-29T13:05:19;3.15;;;1.20;;
30185;SDS011;31152;49.190;8.122;2022-12-29T13:19:14;5.97;;;1.80;;
30185;SDS011;31152;49.190;8.122;2022-12-29T13:22:05;5.03;;;1.90;;
30185;SDS011;31152;49.190;8.122;2022-12-29T13:27:44;4.50;;;1.25;;
30185;SDS011;31152;49.190;8.122;2022-12-29T13:38:35;3.95;;;1.10;;
30185;SDS011;31152;49.190;8.122;2022-12-29T13:41:10;5.03;;;1.40;;
30185;SDS011;31152;49.190;8.122;2022-12-29T13:43:47;4.80;;;1.38;;
30185;SDS011;31152;49.190;8.122;2022-12-29T13:46:23;2.72;;;1.50;;
30185;SDS011;31152;49.190;8.122;2022-12-29T13:48:58;3.33;;;1.35;;
30185;SDS011;31152;49.190;8.122;2022-12-29T13:51:28;2.78;;;1.35;;
30185;SDS011;31152;49.190;8.122;2022-12-29T13:54:09;2.92;;;1.05;;
30185;SDS011;31152;49.190;8.122;2022-12-29T13:56:49;4.55;;;1.60;;
30185;SDS011;31152;49.190;8.122;2022-12-29T14:05:00;4.20;;;1.38;;
30185;SDS011;31152;49.190;8.122;2022-12-29T14:07:35;2.60;;;1.20;;
30185;SDS011;31152;49.190;8.122;2022-12-29T14:10:04;4.55;;;1.25;;
30185;SDS011;31152;49.190;8.122;2022-12-29T14:12:38;3.90;;;1.00;;
30185;SDS011;31152;49.190;8.122;2022-12-29T14:17:39;3.83;;;0.70;;
30185;SDS011;31152;49.190;8.122;2022-12-29T14:20:24;2.03;;;0.75;;
30185;SDS011;31152;49.190;8.122;2022-12-29T14:26:10;3.63;;;0.77;;
30185;SDS011;31152;49.190;8.122;2022-12-29T14:28:55;2.22;;;0.63;;
30185;SDS011;31152;49.190;8.122;2022-12-29T14:39:01;1.50;;;0.85;;
30185;SDS011;31152;49.190;8.122;2022-12-29T14:41:35;1.13;;;0.60;;
30185;SDS011;31152;49.190;8.122;2022-12-29T14:44:15;1.52;;;0.50;;
30185;SDS011;31152;49.190;8.122;2022-12-29T14:46:54;1.48;;;0.52;;
30185;SDS011;31152;49.190;8.122;2022-12-29T14:49:28;2.58;;;0.57;;
30185;SDS011;31152;49.190;8.122;2022-12-29T14:54:56;4.90;;;1.10;;
30185;SDS011;31152;49.190;8.122;2022-12-29T15:00:00;1.63;;;0.63;;
30185;SDS011;31152;49.190;8.122;2022-12-29T15:02:33;0.93;;;0.60;;
30185;SDS011;31152;49.190;8.122;2022-12-29T15:05:05;2.65;;;0.70;;
30185;SDS011;31152;49.190;8.122;2022-12-29T15:07:48;2.05;;;0.80;;
30185;SDS011;31152;49.190;8.122;2022-12-29T15:10:18;3.03;;;0.75;;
30185;SDS011;31152;49.190;8.122;2022-12-29T15:12:52;0.95;;;0.65;;
30185;SDS011;31152;49.190;8.122;2022-12-29T15:15:24;1.85;;;0.60;;
30185;SDS011;31152;49.190;8.122;2022-12-29T15:17:53;1.80;;;0.80;;
30185;SDS011;31152;49.190;8.122;2022-12-29T15:20:25;5.85;;;1.15;;
30185;SDS011;31152;49.190;8.122;2022-12-29T15:23:03;2.78;;;1.00;;
30185;SDS011;31152;49.190;8.122;2022-12-29T15:28:38;6.72;;;1.10;;
30185;SDS011;31152;49.190;8.122;2022-12-29T15:31:14;3.17;;;1.52;;
30185;SDS011;31152;49.190;8.122;2022-12-29T15:33:55;1.85;;;0.80;;
30185;SDS011;31152;49.190;8.122;2022-12-29T15:36:38;3.25;;;1.10;;
30185;SDS011;31152;49.190;8.122;2022-12-29T15:39:20;4.10;;;1.02;;
30185;SDS011;31152;49.190;8.122;2022-12-29T15:41:56;2.58;;;0.80;;
30185;SDS011;31152;49.190;8.122;2022-12-29T15:44:39;6.35;;;1.20;;
30185;SDS011;31152;49.190;8.122;2022-12-29T15:47:16;2.33;;;0.90;;
30185;SDS011;31152;49.190;8.122;2022-12-29T15:49:48;5.80;;;1.27;;
30185;SDS011;31152;49.190;8.122;2022-12-29T15:52:20;2.35;;;0.82;;
30185;SDS011;31152;49.190;8.122;2022-12-29T15:54:49;2.17;;;1.00;;
30185;SDS011;31152;49.190;8.122;2022-12-29T15:57:23;6.82;;;1.58;;
30185;SDS011;31152;49.190;8.122;2022-12-29T15:59:55;2.30;;;1.10;;
30185;SDS011;31152;49.190;8.122;2022-12-29T16:02:22;5.20;;;1.20;;
30185;SDS011;31152;49.190;8.122;2022-12-29T16:04:50;4.78;;;1.30;;
30185;SDS011;31152;49.190;8.122;2022-12-29T16:07:38;2.65;;;1.10;;
30185;SDS011;31152;49.190;8.122;2022-12-29T16:10:27;7.15;;;2.55;;
30185;SDS011;31152;49.190;8.122;2022-12-29T16:13:04;4.20;;;1.08;;
30185;SDS011;31152;49.190;8.122;2022-12-29T16:15:52;3.28;;;1.20;;
30185;SDS011;31152;49.190;8.122;2022-12-29T16:18:30;13.75;;;2.33;;
30185;SDS011;31152;49.190;8.122;2022-12-29T16:21:01;5.38;;;1.00;;
30185;SDS011;31152;49.190;8.122;2022-12-29T16:23:30;4.63;;;1.30;;
30185;SDS011;31152;49.190;8.122;2022-12-29T16:25:58;3.83;;;1.27;;
30185;SDS011;31152;49.190;8.122;2022-12-29T16:28:38;6.53;;;1.48;;
30185;SDS011;31152;49.190;8.122;2022-12-29T16:33:51;5.30;;;1.15;;
30185;SDS011;31152;49.190;8.122;2022-12-29T16:36:23;4.45;;;1.50;;
30185;SDS011;31152;49.190;8.122;2022-12-29T16:41:57;6.53;;;1.42;;
30185;SDS011;31152;49.190;8.122;2022-12-29T16:44:26;3.33;;;1.20;;
30185;SDS011;31152;49.190;8.122;2022-12-29T16:46:58;5.78;;;1.00;;
30185;SDS011;31152;49.190;8.122;2022-12-29T16:49:35;4.90;;;1.48;;
30185;SDS011;31152;49.190;8.122;2022-12-29T16:52:28;4.78;;;1.10;;
30185;SDS011;31152;49.190;8.122;2022-12-29T16:54:58;3.67;;;1.10;;
30185;SDS011;31152;49.190;8.122;2022-12-29T16:57:30;5.13;;;1.10;;
30185;SDS011;31152;49.190;8.122;2022-12-29T17:00:00;7.25;;;1.15;;
30185;SDS011;31152;49.190;8.122;2022-12-29T17:02:31;6.90;;;1.17;;
30185;SDS011;31152;49.190;8.122;2022-12-29T17:05:12;6.13;;;0.95;;
30185;SDS011;31152;49.190;8.122;2022-12-29T17:07:40;5.32;;;1.40;;
30185;SDS011;31152;49.190;8.122;2022-12-29T17:10:07;3.45;;;1.48;;
30185;SDS011;31152;49.190;8.122;2022-12-29T17:12:35;5.32;;;1.20;;
30185;SDS011;31152;49.190;8.122;2022-12-29T17:17:43;5.55;;;1.20;;
30185;SDS011;31152;49.190;8.122;2022-12-29T17:22:46;6.82;;;2.28;;
30185;SDS011;31152;49.190;8.122;2022-12-29T17:25:15;8.35;;;1.90;;
30185;SDS011;31152;49.190;8.122;2022-12-29T17:27:57;4.63;;;1.58;;
30185;SDS011;31152;49.190;8.122;2022-12-29T17:30:29;5.95;;;1.50;;
30185;SDS011;31152;49.190;8.122;2022-12-29T17:33:00;5.22;;;0.95;;
30185;SDS011;31152;49.190;8.122;2022-12-29T17:35:32;7.43;;;1.35;;
30185;SDS011;31152;49.190;8.122;2022-12-29T17:37:58;6.18;;;1.50;;
30185;SDS011;31152;49.190;8.122;2022-12-29T17:40:27;5.28;;;1.30;;
30185;SDS011;31152;49.190;8.122;2022-12-29T17:42:55;3.63;;;1.40;;
30185;SDS011;31152;49.190;8.122;2022-12-29T17:45:23;7.10;;;1.27;;
30185;SDS011;31152;49.190;8.122;2022-12-29T17:47:55;11.48;;;1.92;;
30185;SDS011;31152;49.190;8.122;2022-12-29T17:50:27;6.72;;;1.70;;
30185;SDS011;31152;49.190;8.122;2022-12-29T17:52:57;6.65;;;1.80;;
30185;SDS011;31152;49.190;8.122;2022-12-29T17:55:29;8.57;;;1.77;;
30185;SDS011;31152;49.190;8.122;2022-12-29T18:00:43;9.32;;;1.55;;
30185;SDS011;31152;49.190;8.122;2022-12-29T18:03:15;4.78;;;1.95;;